< < Back
Terminal Aerodrome Forecast


Current Version              Previous Versions:   1  2  3  4  5  6  7  8  9  

Terminal Aerodrome Forecast

528
FTUS42 KMLB 012054 AAB
TAFMCO
TAF AMD
KMCO 012054Z 0121/0218 20010KT 5SM RA BR FEW025 BKN040 OVC060
     FM012300 22008KT P6SM SCT020 BKN050 OVC100
     FM021400 22012KT P6SM SCT040 BKN120=



Latest METAR

850
SAUS70 KWBC 020400 RRH
MTRMCO
METAR KMCO 020353Z 17005KT 10SM FEW035 SCT100 OVC200 23/23 A2999 RMK
SLP154 T02280228


USA.gov is the U.S. government's official web portal to all federal, state and local government web resources and services.